Goshen, VA

7:27 PM EST on December 27, 2014 (GMT -0500)
Mountain Meadow Farm | Change Station
CLOSE
Current Station
Personal Weather Station
Location: Goshen, VA
Elevation: 1532 ft
Nearby Weather Stations

Elev 1532 ft 38.05 °N, 79.48 °W | Updated 8 minutes ago

Clear
Clear
42.2 °F
Feels Like 42 °F
N
0.0
Wind Variable Wind from NW
Gusts 0.0 mph

Today
High -- | Low -- °F
--% Chance of Precip.
Yesterday
High -- | Low -- °F
Precip. -- in
7:32 AM 5:05 PM
Waxing Crescent, 41% visible
Pressure 30.16 in
Visibility 10.0 miles
Clouds Scattered Clouds 3600 ft
Windchill 42 °F
Dew Point 31 °F
Humidity 65%
Rainfall 0.00 in
Snow Depth Not available.
UV 0 out of 12
Pollen 1.00 out of 12
Air Quality Not available.
Flu Activity Not available.
METAR KHSP 280015Z AUTO 20005KT 10SM SCT036 11/M11 A3016 RMK AO2 T01051112

More Conditions Fewer Conditions

Pressure 30.16 in
Visibility 10.0 miles
Clouds Scattered Clouds 3600 ft
Windchill 42 °F
Dew Point 31 °F
Humidity 65%
Rainfall 0.00 in
Snow Depth Not available.
UV 0 out of 12
Pollen 1.00 out of 12
Air Quality Not available.
Flu Activity Not available.
METAR KHSP 280015Z AUTO 20005KT 10SM SCT036 11/M11 A3016 RMK AO2 T01051112

More Conditions Fewer Conditions

10-Day Weather Forecast

Almanac

Astronomy

Dec. 27, 2014 Rise Set
Actual Time
Civil Twilight
Nautical Twilight
Astronomical Twilight
Moon
Length of Visible Light
Length of Day
Tomorrow will be .
, % of the Moon is Illuminated

Today's Extremes

State Highs State Lows

Community

WunderPhotos

Upload Photos

1,781,116 photos uploaded!

WunderBlogs® & News

Nearby

Air Quality

  Air Quality AQ Index Pollutant
Not available.

Snow Depth

Station Depth Elevation

Earthquake Activity

City Distance Mag. Time & Date
Minimum magnitude displayed is 2.5.

Coastal Water Temperatures

Place Temperature

Nearby Weather Stations